Skip Navigation LinksHome page > Weather > Current weather Skip Navigation Links

Current Weather

Alert, Nunavut

For information only: do not use for flight planning or navigation.
Latest weather
Observation time Sunday, March 29, 2015 6:00 PM EDT
Local time Sunday, March 29, 2015 7:53 PM EDT
Flight conditions Visual Meteorological Conditions
Winds
Wind direction West-Northwest (300°)
Wind speed 7 mph
Visibility 6 mi.
Present weather ice crystals
Sky condition
Ceiling unlimited
Cloud layer few clouds 300 ft.
Cloud layer few clouds 2,200 ft.
Temperature -24°F
Dewpoint -31°F
Altimeter 30.01 in.Hg
Derived measurements
Relative humidity 68%
Wind chill -42°F
Density altitude -6148 ft.
Sea-level pressure 30.03 in.Hg
Remarks
Last observation of the day.
Visibility southeast.
METAR CYLT 292200Z 30006KT 6SM IC FEW003 FEW022 M31/M35 A3001 RMK ST1SC1 VIS LWR SE QUAD LAST OBS/NEXT 300400 UTC PARHELIA SLP168

Settings

Location code

InnerDrive.Weather 4.0.5567.0 Release CLR 4.0.30319.34014
Copyright ©2015 Inner Drive Technology. All rights reserved. Portions Copyright ©1986-2015 David Braverman.

Find weather

Site navigation


Skip Navigation Links

Place info

Page info

PayPal - The safer, easier way to pay online!

Return home.

Copyright ©2015 Inner Drive Technology. Purveyors of fine, hand-crafted computer software. Page printed 2015-03-29T23:53:07 UTC.